createdAt,value
2019-06-01T00:01:03.579Z,14.60
2019-06-01T00:06:00.444Z,14.50
2019-06-01T00:08:13.717Z,14.50
2019-06-01T00:24:33.355Z,14.20
2019-06-01T00:30:06.109Z,14.10
2019-06-01T00:32:22.017Z,14.10
2019-06-01T00:34:41.337Z,14.00
2019-06-01T00:37:02.118Z,14.00
2019-06-01T00:41:56.207Z,13.90
2019-06-01T01:01:10.123Z,13.70
2019-06-01T01:28:42.601Z,13.30
2019-06-01T01:35:42.049Z,13.20
2019-06-01T01:40:15.506Z,13.10
2019-06-01T01:42:31.099Z,13.10
2019-06-01T02:20:34.173Z,12.90
2019-06-01T02:48:15.670Z,12.60
2019-06-01T02:50:37.175Z,12.70
2019-06-01T02:52:53.574Z,12.60
2019-06-01T02:55:11.401Z,12.60
2019-06-01T02:57:27.644Z,12.60
2019-06-01T02:59:51.077Z,12.60
2019-06-01T03:07:18.750Z,12.60
2019-06-01T03:09:39.533Z,12.60
2019-06-01T03:35:48.346Z,12.80
2019-06-01T03:46:14.658Z,13.00
2019-06-01T03:47:27.802Z,13.10
2019-06-01T03:49:34.409Z,13.20
2019-06-01T03:51:38.558Z,13.30
2019-06-01T03:53:42.673Z,13.40
2019-06-01T03:55:46.838Z,13.50
2019-06-01T03:57:54.374Z,13.60
2019-06-01T03:59:58.820Z,13.70
2019-06-01T04:02:33.130Z,13.80
2019-06-01T04:07:29.580Z,14.10
2019-06-01T04:09:50.357Z,14.20
2019-06-01T04:12:22.072Z,14.30
2019-06-01T04:14:41.245Z,14.50
2019-06-01T04:16:45.491Z,14.60
2019-06-01T04:19:21.162Z,14.60
2019-06-01T06:05:13.004Z,27.50
2019-06-01T06:07:20.167Z,26.80
2019-06-01T06:27:34.515Z,27.10
2019-06-01T06:29:52.260Z,27.30
2019-06-01T06:31:56.451Z,27.30
2019-06-01T06:34:19.958Z,27.40
2019-06-01T06:36:35.651Z,27.40
2019-06-01T06:38:53.699Z,27.20
2019-06-01T06:41:20.573Z,26.90
2019-06-01T06:43:40.694Z,26.70
2019-06-01T06:46:24.830Z,26.30
2019-06-01T06:48:29.498Z,26.20
2019-06-01T06:50:33.848Z,26.00
2019-06-01T06:52:57.819Z,25.70
2019-06-01T06:55:13.496Z,25.40
2019-06-01T07:07:17.476Z,24.30
2019-06-01T07:09:28.723Z,24.00
2019-06-01T07:11:53.638Z,23.70
2019-06-01T07:14:14.868Z,23.60
2019-06-01T07:16:34.303Z,23.50
2019-06-01T07:18:44.898Z,23.50
2019-06-01T07:21:10.128Z,23.40
2019-06-01T07:23:53.824Z,23.40
2019-06-01T07:26:05.762Z,23.30
2019-06-01T07:28:28.257Z,23.30
2019-06-01T07:30:50.502Z,23.30
2019-06-01T07:32:57.080Z,23.50
2019-06-01T07:35:01.801Z,23.70
2019-06-01T07:37:17.794Z,24.00
2019-06-01T07:39:33.382Z,24.10
2019-06-01T07:41:36.580Z,24.20
2019-06-01T07:43:40.529Z,24.20
2019-06-01T07:45:44.779Z,24.10
2019-06-01T07:48:04.699Z,24.20
2019-06-01T07:50:23.966Z,24.10
2019-06-01T07:52:44.892Z,24.20
2019-06-01T07:55:05.454Z,24.20
2019-06-01T07:57:18.550Z,24.20
2019-06-01T07:59:38.525Z,24.10
2019-06-01T08:02:01.727Z,24.10
2019-06-01T08:04:22.881Z,24.10
2019-06-01T08:09:51.657Z,24.00
2019-06-01T08:12:21.227Z,24.10
2019-06-01T08:15:11.076Z,24.20
2019-06-01T08:17:22.000Z,24.40
2019-06-01T08:19:35.496Z,24.60
2019-06-01T08:21:58.097Z,24.70
2019-06-01T08:24:35.928Z,24.80
2019-06-01T08:26:50.794Z,24.80
2019-06-01T08:29:01.609Z,24.80
2019-06-01T08:31:36.020Z,24.60
2019-06-01T09:04:44.584Z,25.00
2019-06-01T09:06:48.704Z,25.20
2019-06-01T09:08:53.027Z,25.30
2019-06-01T09:11:06.179Z,25.40
2019-06-01T09:13:54.356Z,25.40
2019-06-01T09:16:36.549Z,25.40
2019-06-01T09:19:05.037Z,25.30
2019-06-01T09:21:09.120Z,25.10
2019-06-01T09:23:39.116Z,25.20
2019-06-01T09:26:06.560Z,25.30
2019-06-01T09:28:29.822Z,25.30
2019-06-01T09:31:02.788Z,25.30
2019-06-01T09:33:21.737Z,25.30
2019-06-01T09:35:54.034Z,25.30
2019-06-01T09:38:13.184Z,25.20
2019-06-01T09:40:35.093Z,25.30
2019-06-01T09:43:05.720Z,25.40
2019-06-01T09:45:32.945Z,25.50
2019-06-01T10:08:58.877Z,25.70
2019-06-01T10:20:45.601Z,25.80
2019-06-01T10:22:49.562Z,25.70
2019-06-01T10:24:53.760Z,25.70
2019-06-01T10:26:57.945Z,25.70
2019-06-01T10:29:02.264Z,25.80
2019-06-01T10:31:06.456Z,25.90
2019-06-01T10:33:10.473Z,25.90
2019-06-01T10:35:15.661Z,26.00
2019-06-01T10:37:37.597Z,26.00
2019-06-01T10:42:27.272Z,26.00
2019-06-01T10:45:05.846Z,25.90
2019-06-01T10:47:22.809Z,26.10
2019-06-01T10:49:28.913Z,26.10
2019-06-01T10:51:34.025Z,26.10
2019-06-01T10:53:38.628Z,26.20
2019-06-01T10:55:45.638Z,26.20
2019-06-01T10:57:50.055Z,26.30
2019-06-01T10:59:54.523Z,26.30
2019-06-01T11:01:58.618Z,26.40
2019-06-01T11:04:03.843Z,26.50
2019-06-01T11:06:36.747Z,26.60
2019-06-01T11:09:27.115Z,26.60
2019-06-01T11:20:43.689Z,26.70
2019-06-01T11:22:50.841Z,26.60
2019-06-01T11:24:55.254Z,26.60
2019-06-01T11:26:59.411Z,26.60
2019-06-01T11:29:03.404Z,26.70
2019-06-01T11:31:10.594Z,26.70
2019-06-01T11:33:14.674Z,26.60
2019-06-01T11:35:55.714Z,26.60
2019-06-01T11:38:17.469Z,26.70
2019-06-01T11:40:38.634Z,26.80
2019-06-01T11:43:03.922Z,27.00
2019-06-01T11:45:29.677Z,27.00
2019-06-01T11:47:56.305Z,27.10
2019-06-01T11:50:19.484Z,27.20
2019-06-01T11:52:43.462Z,27.10
2019-06-01T11:55:16.521Z,27.00
2019-06-01T11:57:43.496Z,27.10
2019-06-01T11:59:57.229Z,27.20
2019-06-01T12:03:09.410Z,27.20
2019-06-01T12:04:37.762Z,27.30
2019-06-01T12:07:16.246Z,27.20
2019-06-01T12:09:43.842Z,27.30
2019-06-01T12:12:03.604Z,27.30
2019-06-01T12:14:29.989Z,27.40
2019-06-01T12:16:59.453Z,27.40
2019-06-01T12:19:26.704Z,27.40
2019-06-01T12:21:38.908Z,27.30
2019-06-01T12:23:56.283Z,27.30
2019-06-01T12:26:35.252Z,27.30
2019-06-01T12:28:39.653Z,27.30
2019-06-01T12:30:58.478Z,27.30
2019-06-01T12:33:21.474Z,27.40
2019-06-01T12:35:33.729Z,27.50
2019-06-01T12:40:30.117Z,27.50
2019-06-01T12:42:59.317Z,27.50
2019-06-01T12:45:09.129Z,27.50
2019-06-01T12:47:18.192Z,27.50
2019-06-01T12:49:48.274Z,27.60
2019-06-01T12:51:53.094Z,27.60
2019-06-01T12:53:57.895Z,27.60
2019-06-01T12:56:02.255Z,27.50
2019-06-01T12:58:06.534Z,27.50
2019-06-01T13:00:11.117Z,27.50
2019-06-01T13:02:15.070Z,27.50
2019-06-01T13:04:19.115Z,27.60
2019-06-01T13:06:23.192Z,27.60
2019-06-01T13:08:29.180Z,27.70
2019-06-01T13:10:33.425Z,27.80
2019-06-01T13:12:41.114Z,27.80
2019-06-01T13:14:52.196Z,27.90
2019-06-01T13:17:06.720Z,27.80
2019-06-01T13:19:02.997Z,27.80
2019-06-01T13:21:30.951Z,27.80
2019-06-01T13:23:37.369Z,27.90
2019-06-01T13:25:43.581Z,27.90
2019-06-01T13:28:06.713Z,27.90
2019-06-01T13:30:38.755Z,28.00
2019-06-01T13:33:08.913Z,28.00
2019-06-01T13:35:22.357Z,28.00
2019-06-01T13:38:10.725Z,28.10
2019-06-01T13:40:37.577Z,28.10
2019-06-01T13:42:38.931Z,28.20
2019-06-01T13:44:56.081Z,28.20
2019-06-01T13:47:28.618Z,28.30
2019-06-01T13:49:45.147Z,28.30
2019-06-01T13:52:35.925Z,28.40
2019-06-01T14:31:12.689Z,28.60
2019-06-01T14:33:48.336Z,28.50
2019-06-01T14:35:52.834Z,28.60
2019-06-01T14:41:03.425Z,28.70
2019-06-01T14:43:31.062Z,28.70
2019-06-01T14:46:13.259Z,28.80
2019-06-01T14:51:00.808Z,29.00
2019-06-01T14:53:05.187Z,29.00
2019-06-01T14:55:10.299Z,28.90
2019-06-01T14:57:16.585Z,28.80
2019-06-01T14:59:27.412Z,28.90
2019-06-01T15:01:33.235Z,28.90
2019-06-01T15:03:43.466Z,28.70
2019-06-01T15:05:45.214Z,28.70
2019-06-01T15:07:50.174Z,28.60
2019-06-01T15:09:54.353Z,28.60
2019-06-01T15:12:01.558Z,28.60
2019-06-01T15:14:08.600Z,28.60
2019-06-01T15:16:12.878Z,28.60
2019-06-01T15:18:17.146Z,28.70
2019-06-01T15:20:21.582Z,28.70
2019-06-01T15:22:33.461Z,28.70
2019-06-01T15:24:37.801Z,28.70
2019-06-01T15:26:42.023Z,28.60
2019-06-01T15:28:46.156Z,28.60
2019-06-01T15:30:50.877Z,28.60
2019-06-01T15:32:56.214Z,28.60
2019-06-01T15:35:03.211Z,28.60
2019-06-01T15:37:16.387Z,28.70
2019-06-01T15:39:24.839Z,28.60
2019-06-01T15:41:22.808Z,28.40
2019-06-01T15:43:26.941Z,28.30
2019-06-01T15:45:31.241Z,28.20
2019-06-01T15:47:35.414Z,28.30
2019-06-01T15:49:43.060Z,28.30
2019-06-01T15:52:10.551Z,28.30
2019-06-01T15:54:39.822Z,28.20
2019-06-01T15:57:04.446Z,28.20
2019-06-01T16:02:01.323Z,28.20
2019-06-01T16:22:43.275Z,27.90
2019-06-01T16:24:48.013Z,27.90
2019-06-01T16:29:41.971Z,27.90
2019-06-01T16:31:46.262Z,27.90
2019-06-01T16:33:50.954Z,27.90
2019-06-01T16:35:58.861Z,27.90
2019-06-01T16:38:05.852Z,27.90
2019-06-01T16:40:10.529Z,27.90
2019-06-01T16:42:15.140Z,27.90
2019-06-01T16:44:19.994Z,27.80
2019-06-01T16:46:24.205Z,27.80
2019-06-01T16:48:28.145Z,27.70
2019-06-01T16:50:32.247Z,27.70
2019-06-01T16:52:39.492Z,27.70
2019-06-01T16:54:43.772Z,27.70
2019-06-01T16:56:48.287Z,27.70
2019-06-01T16:58:52.616Z,27.70
2019-06-01T17:00:56.777Z,27.70
2019-06-01T17:03:01.002Z,27.60
2019-06-01T17:05:07.040Z,27.60
2019-06-01T17:07:11.342Z,27.60
2019-06-01T17:09:15.592Z,27.50
2019-06-01T17:11:20.132Z,27.60
2019-06-01T17:13:24.594Z,27.60
2019-06-01T17:15:28.678Z,27.60
2019-06-01T17:17:32.743Z,27.60
2019-06-01T17:19:36.839Z,27.50
2019-06-01T17:21:41.253Z,27.40
2019-06-01T17:23:45.265Z,27.50
2019-06-01T17:25:49.512Z,27.50
2019-06-01T17:27:53.610Z,27.50
2019-06-01T17:30:04.388Z,27.50
2019-06-01T17:32:19.898Z,27.50
2019-06-01T17:34:12.553Z,27.50
2019-06-01T17:36:18.771Z,27.60
2019-06-01T17:38:23.419Z,27.60
2019-06-01T17:40:37.499Z,27.60
2019-06-01T17:42:37.145Z,27.80
2019-06-01T17:44:41.801Z,27.90
2019-06-01T17:46:53.422Z,28.20
2019-06-01T17:48:56.617Z,29.10
2019-06-01T17:51:00.828Z,29.60
2019-06-01T17:56:01.990Z,30.50
2019-06-01T17:58:38.496Z,30.30
2019-06-01T18:01:14.300Z,30.00
2019-06-01T18:03:50.109Z,29.70
2019-06-01T18:28:06.976Z,32.10
2019-06-01T18:30:12.734Z,31.20
2019-06-01T18:32:17.026Z,30.30
2019-06-01T18:34:21.449Z,29.50
2019-06-01T18:36:26.126Z,29.10
2019-06-01T18:38:46.867Z,28.90
2019-06-01T18:41:15.920Z,28.90
2019-06-01T18:43:31.979Z,28.60
2019-06-01T18:46:12.147Z,28.00
2019-06-01T18:48:36.272Z,27.50
2019-06-01T18:50:38.685Z,27.10
2019-06-01T18:52:48.740Z,26.70
2019-06-01T18:54:56.051Z,26.40
2019-06-01T18:57:09.845Z,26.20
2019-06-01T18:59:06.842Z,26.00
2019-06-01T19:01:12.547Z,25.80
2019-06-01T19:03:16.887Z,25.60
2019-06-01T19:05:21.037Z,25.40
2019-06-01T19:07:25.040Z,25.30
2019-06-01T19:09:58.740Z,25.10
2019-06-01T19:12:24.433Z,24.90
2019-06-01T19:14:44.234Z,24.70
2019-06-01T19:17:06.221Z,24.40
2019-06-01T19:19:35.026Z,24.20
2019-06-01T19:22:03.290Z,24.00
2019-06-01T19:24:39.996Z,23.80
2019-06-01T19:27:04.293Z,23.60
2019-06-01T19:29:30.960Z,23.40
2019-06-01T19:31:51.976Z,23.20
2019-06-01T19:34:28.658Z,23.00
2019-06-01T19:36:28.317Z,22.90
2019-06-01T19:38:54.425Z,22.70
2019-06-01T19:41:25.254Z,22.60
2019-06-01T19:48:49.735Z,22.20
2019-06-01T19:51:12.594Z,22.00
2019-06-01T19:53:25.712Z,21.90
2019-06-01T19:55:47.743Z,21.80
2019-06-01T19:58:18.838Z,21.70
2019-06-01T20:00:40.990Z,21.50
2019-06-01T20:03:14.343Z,21.50
2019-06-01T20:05:37.433Z,21.40
2019-06-01T20:10:30.309Z,21.10
2019-06-01T20:12:49.651Z,21.10
2019-06-01T20:15:22.519Z,21.00
2019-06-01T20:17:42.939Z,20.90
2019-06-01T20:20:10.633Z,20.80
2019-06-01T20:22:30.708Z,20.80
2019-06-01T20:24:34.839Z,20.70
2019-06-01T20:26:44.541Z,20.60
2019-06-01T20:28:48.066Z,20.60
2019-06-01T20:30:52.161Z,20.50
2019-06-01T20:32:56.571Z,20.40
2019-06-01T20:35:04.778Z,20.40
2019-06-01T20:37:08.908Z,20.30
2019-06-01T20:39:22.506Z,20.30
2019-06-01T20:41:30.939Z,20.30
2019-06-01T20:43:35.641Z,20.20
2019-06-01T20:45:39.873Z,20.20
2019-06-01T20:49:40.875Z,20.10
2019-06-01T20:53:48.609Z,20.00
2019-06-01T20:55:52.732Z,19.90
2019-06-01T20:57:56.805Z,19.90
2019-06-01T21:00:00.772Z,19.90
2019-06-01T21:02:05.052Z,19.80
2019-06-01T21:04:09.349Z,19.80
2019-06-01T21:06:13.921Z,19.70
2019-06-01T21:08:22.324Z,19.70
2019-06-01T21:10:48.813Z,19.60
2019-06-01T21:26:05.161Z,19.30
2019-06-01T21:28:14.168Z,19.30
2019-06-01T21:30:18.798Z,19.20
2019-06-01T21:32:25.697Z,19.20
2019-06-01T21:34:34.645Z,19.20
2019-06-01T21:36:41.619Z,19.10
2019-06-01T21:38:44.640Z,19.00
2019-06-01T21:40:49.002Z,19.00
2019-06-01T21:43:20.282Z,19.00
2019-06-01T21:45:07.593Z,19.00
2019-06-01T21:47:17.562Z,18.90
2019-06-01T21:49:24.056Z,18.90
2019-06-01T21:51:28.436Z,18.80
2019-06-01T21:53:35.405Z,18.80
2019-06-01T21:56:11.023Z,18.80
2019-06-01T21:58:37.508Z,18.70
2019-06-01T22:01:03.618Z,18.70
2019-06-01T22:03:27.348Z,18.60
2019-06-01T22:05:59.857Z,18.60
2019-06-01T22:08:27.505Z,18.60
2019-06-01T22:10:35.481Z,18.50
2019-06-01T22:12:39.509Z,18.40
2019-06-01T22:14:43.465Z,18.40
2019-06-01T22:16:47.763Z,18.30
2019-06-01T22:18:51.696Z,18.30
2019-06-01T22:20:55.835Z,18.30
2019-06-01T22:22:59.834Z,18.20
2019-06-01T22:25:35.248Z,18.20
2019-06-01T22:31:13.103Z,18.00
2019-06-01T22:33:39.354Z,18.00
2019-06-01T22:35:43.328Z,17.90
2019-06-01T22:38:15.549Z,17.90
2019-06-01T22:40:11.345Z,17.90
2019-06-01T22:42:32.604Z,17.80
2019-06-01T22:44:44.851Z,17.80
2019-06-01T22:55:51.781Z,17.60
2019-06-01T22:57:55.917Z,17.50
2019-06-01T22:59:59.928Z,17.50
2019-06-01T23:02:04.232Z,17.50
2019-06-01T23:04:08.648Z,17.40
2019-06-01T23:06:13.125Z,17.40
2019-06-01T23:08:24.498Z,17.30
2019-06-01T23:10:35.143Z,17.30
2019-06-01T23:12:38.750Z,17.30
2019-06-01T23:14:46.164Z,17.20
2019-06-01T23:16:52.380Z,17.20
2019-06-01T23:18:56.926Z,17.20
2019-06-01T23:21:01.110Z,17.20
2019-06-01T23:23:05.348Z,17.10
2019-06-01T23:25:09.812Z,17.10
2019-06-01T23:27:13.668Z,17.10
2019-06-01T23:29:18.065Z,17.10
2019-06-01T23:31:22.289Z,17.00
2019-06-01T23:33:26.973Z,17.00
2019-06-01T23:35:31.011Z,17.00
2019-06-01T23:37:34.948Z,17.00
2019-06-01T23:39:39.563Z,16.90
2019-06-01T23:42:36.876Z,16.90
2019-06-01T23:45:04.988Z,16.90
2019-06-01T23:47:31.386Z,16.80
2019-06-01T23:52:33.967Z,16.70
2019-06-01T23:54:52.809Z,16.70
2019-06-01T23:57:28.580Z,16.60
